LEAMLELC

Guest
Details From LEAM - Almeria
To LELC - Murcia San Javier
Flight Number -
Tags generated
Created
Modified
Stats Distance 93 nm / 173 km
Max Altitude 0 ft / 0 m
Waypoints 3
Social Downloads 2
Likes 0
Share VATSIM

Download

Looking for another format? Having issues loading an existing format? Contact us
Advertisement - Login to hide

Notes

Basic altitude profile: - Ascent Rate: 2500ft/min - Ascent Speed: 250kts - Cruise Altitude: 35000ft - Cruise Speed: 420kts - Descent Rate: 1500ft/min - Descent Speed: 250kts Options: - Use NATs: yes - Use PACOTS: yes - Use low airways: yes - Use high airways: yes

Route

LEAM VSJ LELC

ID Type Via Altitude Latitude Longitude Leg Dist Tot Dist Heading (true) Name
O LEAM APT - 0 ft / 0 m 36.84393˚ -2.37010˚ - 0 nm - Almeria
VSJ VOR - 0 ft / 0 m 37.77978˚ -0.81278˚ 93 nm 93 nm 52° / 53° MURCIA/SAN JAVIER VOR-DME
O LELC APT - 0 ft / 0 m 37.78026˚ -0.81226˚ 0 nm 93 nm 41° / 41° Murcia San Javier

Altitude Profile

Advertisement - Login to hide

LEAM

Details ICAO LEAM (LEI)
Name Almeria
Region Spain
Timezone Unknown (UTC+0.0)
Stats Elevation 70 ft / 21 m (AMSL)
Location 36.843935° -2.370097°
Runways 1
Magnetic Variation 0.288° W

METAR

LEAM 141000Z 27003KT 210V310 CAVOK 14/05 Q1023

Decode

TAF

TAF LEAM 140800Z 1409/1509 33005KT CAVOK TX15/1412Z TN08/1409Z BECMG 1410/1412 22010KT BECMG 1418/1420 VRB03KT

Decode

Departure Runways

ID Width Length Bearing (true) Bearing (mag) Surface Threshold Offset Overrun Length
08 148 ft / 45 m 10,484 ft / 3,196 m 72.94° 73.23° Asphalt 492 ft / 150 m 191 ft / 58 m
26 148 ft / 45 m 10,484 ft / 3,196 m 252.96° 253.25° Asphalt 0 ft / 0 m 150 ft / 46 m

LELC

Details ICAO LELC (MJV)
Name Murcia San Javier
Region Spain
Timezone Europe/Madrid (UTC+1.0)
Stats Elevation 11 ft / 3 m (AMSL)
Location 37.780256° -0.812257°
Runways 3
Magnetic Variation 0.120° E

METAR

LELC 141000Z 24007KT 180V280 CAVOK 14/03 Q1022 NOSIG

Decode

TAF

TAF LELC 140500Z 1406/1506 26008KT CAVOK TX18/1414Z TN06/1406Z

Decode

Destination Runways

ID Width Length Bearing (true) Bearing (mag) Surface Threshold Offset Overrun Length
05L 164 ft / 50 m 6,553 ft / 1,997 m 45.62° 45.50° Asphalt 656 ft / 200 m 0 ft / 0 m
05R 148 ft / 45 m 7,553 ft / 2,302 m 45.63° 45.51° Asphalt 0 ft / 0 m 656 ft / 200 m
14 197 ft / 60 m 2,657 ft / 810 m 136.05° 135.93° Grass 0 ft / 0 m 0 ft / 0 m
23L 148 ft / 45 m 7,553 ft / 2,302 m 225.65° 225.53° Asphalt 0 ft / 0 m 656 ft / 200 m
23R 164 ft / 50 m 6,553 ft / 1,997 m 225.63° 225.51° Asphalt 656 ft / 200 m 0 ft / 0 m
32 197 ft / 60 m 2,657 ft / 810 m 316.05° 315.93° Grass 0 ft / 0 m 0 ft / 0 m

Approach Navaids

Runway Type Ident Frequency Range Bearing (true) Bearing (mag) Slope Elevation
05R Localiser ISJ 110.50 MHz 18 nm / 33 km 45.68° 45.56° - 11 ft / 3 m (AMSL)
05R Glidescope ISJ 110.50 MHz 10 nm / 19 km 45.64° 45.52° 2.80° 11 ft / 3 m (AMSL)

Popular Alternatives